Time;durP1;ratioP1;P1;durP2;ratioP2;P2;SDS_P1;SDS_P2;PMS_P1;PMS_P2;Temp;Humidity;BMP_temperature;BMP_pressure;BME280_temperature;BME280_humidity;BME280_pressure;Samples;Min_cycle;Max_cycle;Signal;HPM_P1;HPM_P2
2023/08/15 00:01:29;;;;;;;9.88;5.03;;;20.70;84.40;;;;;;5061416;28;20075;-75
2023/08/15 00:03:56;;;;;;;10.23;5.00;;;20.70;84.60;;;;;;5055560;28;20080;-76
2023/08/15 00:06:23;;;;;;;10.30;4.65;;;20.70;84.80;;;;;;5061516;28;20048;-75
2023/08/15 00:08:54;;;;;;;8.38;5.30;;;20.60;85.30;;;;;;5056960;28;20465;-76
2023/08/15 00:11:22;;;;;;;8.13;4.70;;;20.60;85.30;;;;;;5058197;28;20136;-76
2023/08/15 00:13:49;;;;;;;7.95;4.82;;;20.60;85.50;;;;;;5061582;28;20109;-75
2023/08/15 00:16:16;;;;;;;8.35;4.88;;;20.60;86.00;;;;;;5058468;28;20056;-75
2023/08/15 00:18:43;;;;;;;13.57;4.80;;;20.60;86.10;;;;;;5062502;28;20044;-78
2023/08/15 00:21:12;;;;;;;7.88;5.10;;;20.60;86.10;;;;;;5058389;28;20052;-79
2023/08/15 00:23:39;;;;;;;11.27;5.78;;;20.60;86.00;;;;;;5065608;28;20060;-79
2023/08/15 00:26:06;;;;;;;14.70;5.53;;;20.50;86.00;;;;;;5061698;28;20078;-79
2023/08/15 00:28:33;;;;;;;9.80;5.00;;;20.50;86.30;;;;;;5064009;28;20051;-79
2023/08/15 00:31:00;;;;;;;9.25;4.90;;;20.50;86.30;;;;;;5059207;28;20136;-78
2023/08/15 00:33:27;;;;;;;9.80;5.05;;;20.50;86.10;;;;;;5060871;28;20416;-77
2023/08/15 00:35:54;;;;;;;10.70;4.80;;;20.50;86.20;;;;;;5057095;28;20148;-78
2023/08/15 00:38:21;;;;;;;12.35;5.32;;;20.50;86.30;;;;;;5062452;28;20044;-78
2023/08/15 00:40:47;;;;;;;11.80;5.10;;;20.60;86.90;;;;;;5061662;28;20124;-79
2023/08/15 00:43:17;;;;;;;10.93;5.70;;;20.70;86.60;;;;;;5069800;28;20075;-78
2023/08/15 00:45:45;;;;;;;8.82;5.70;;;20.70;86.20;;;;;;5072248;28;20054;-79
2023/08/15 00:48:12;;;;;;;11.02;5.30;;;20.70;86.10;;;;;;5069943;28;20370;-79
2023/08/15 00:50:41;;;;;;;8.90;5.38;;;20.80;86.00;;;;;;5066536;28;20095;-79
2023/08/15 00:53:10;;;;;;;11.73;5.07;;;20.80;86.00;;;;;;5061124;28;20049;-79
2023/08/15 00:55:38;;;;;;;9.90;5.80;;;20.80;86.10;;;;;;5064571;28;20044;-75
2023/08/15 00:58:05;;;;;;;7.57;5.80;;;20.80;86.20;;;;;;5071253;28;20048;-75
2023/08/15 01:00:32;;;;;;;10.38;5.80;;;20.80;86.30;;;;;;5065978;28;20125;-78
2023/08/15 01:03:00;;;;;;;8.23;5.43;;;20.80;86.70;;;;;;5069444;28;20159;-79
2023/08/15 01:05:28;;;;;;;9.23;6.80;;;20.80;86.70;;;;;;5076709;28;20041;-79
2023/08/15 01:07:56;;;;;;;13.43;5.25;;;20.80;86.80;;;;;;5057903;28;20176;-79
2023/08/15 01:10:23;;;;;;;11.40;5.43;;;20.80;87.10;;;;;;5068855;28;20501;-78
2023/08/15 01:13:42;;;;;;;9.98;5.38;;;20.80;87.10;;;;;;5070424;28;20071;-79
2023/08/15 01:16:15;;;;;;;19.25;6.07;;;20.80;87.20;;;;;;5064310;28;20083;-75
2023/08/15 01:18:48;;;;;;;13.32;6.10;;;20.80;87.60;;;;;;5069749;28;20057;-75
2023/08/15 01:21:21;;;;;;;10.07;5.65;;;20.80;88.00;;;;;;5073529;28;20101;-75
2023/08/15 01:23:50;;;;;;;7.35;5.55;;;20.80;87.90;;;;;;5064209;28;20080;-75
2023/08/15 01:26:17;;;;;;;13.05;6.03;;;20.70;88.10;;;;;;5065651;28;20090;-75
2023/08/15 01:28:43;;;;;;;8.35;5.80;;;20.70;88.30;;;;;;5057841;28;20090;-75
2023/08/15 01:31:13;;;;;;;11.13;6.05;;;20.70;88.60;;;;;;5070007;28;20127;-79
2023/08/15 01:34:04;;;;;;;10.57;6.13;;;20.70;88.90;;;;;;5067955;28;20534;-79
2023/08/15 01:36:38;;;;;;;10.95;6.40;;;20.70;89.00;;;;;;5068617;28;20060;-79
2023/08/15 01:39:07;;;;;;;16.30;6.00;;;20.70;89.30;;;;;;5066702;28;20120;-78
2023/08/15 01:41:38;;;;;;;9.60;5.30;;;20.70;89.40;;;;;;5059765;28;20311;-78
2023/08/15 01:44:09;;;;;;;10.25;5.88;;;20.70;89.60;;;;;;5064707;28;20044;-79
2023/08/15 01:46:36;;;;;;;13.00;5.47;;;20.70;89.50;;;;;;5065789;28;20120;-79
2023/08/15 01:49:03;;;;;;;9.80;6.30;;;20.70;89.50;;;;;;5063675;28;20123;-78
2023/08/15 01:51:30;;;;;;;10.10;6.28;;;20.70;89.90;;;;;;5063554;28;20131;-79
2023/08/15 01:53:56;;;;;;;10.00;6.22;;;20.60;89.70;;;;;;5060128;28;20598;-78
2023/08/15 01:56:24;;;;;;;13.82;5.75;;;20.60;89.90;;;;;;5061445;28;20048;-78
2023/08/15 01:58:51;;;;;;;10.32;5.80;;;20.60;90.10;;;;;;5062979;28;20491;-78
2023/08/15 02:01:18;;;;;;;8.48;6.00;;;20.50;90.50;;;;;;5073074;28;20049;-78
2023/08/15 02:03:45;;;;;;;12.73;5.88;;;20.60;90.80;;;;;;5079232;28;20689;-79
2023/08/15 02:06:11;;;;;;;12.15;5.95;;;20.50;90.70;;;;;;5072316;28;20041;-78
2023/08/15 02:08:38;;;;;;;17.45;7.10;;;20.50;90.90;;;;;;5068892;28;20048;-79
2023/08/15 02:11:05;;;;;;;11.18;6.20;;;20.50;91.30;;;;;;5061236;28;20139;-79
2023/08/15 02:13:33;;;;;;;9.35;6.30;;;20.50;91.20;;;;;;5061493;28;20126;-79
2023/08/15 02:16:01;;;;;;;12.23;5.88;;;20.50;91.20;;;;;;5059575;28;20550;-80
2023/08/15 02:18:31;;;;;;;14.75;6.53;;;20.40;91.50;;;;;;5065139;28;20076;-79
2023/08/15 02:20:58;;;;;;;9.90;6.32;;;20.40;91.40;;;;;;5065967;28;20114;-79
2023/08/15 02:23:26;;;;;;;13.48;6.63;;;20.40;91.60;;;;;;5063144;28;20051;-80
2023/08/15 02:25:52;;;;;;;13.18;6.68;;;20.40;91.90;;;;;;5065873;28;20072;-79
2023/08/15 02:28:19;;;;;;;14.18;6.68;;;20.40;92.00;;;;;;5065961;28;20101;-80
2023/08/15 02:30:46;;;;;;;9.50;5.93;;;20.30;92.20;;;;;;5064989;28;20083;-80
2023/08/15 02:33:13;;;;;;;9.73;6.47;;;20.30;92.70;;;;;;5069001;28;20763;-80
2023/08/15 02:35:41;;;;;;;13.45;7.05;;;20.30;92.60;;;;;;5064384;28;20067;-80
2023/08/15 02:38:09;;;;;;;15.65;7.07;;;20.30;92.60;;;;;;5070559;28;20056;-80
2023/08/15 02:40:35;;;;;;;12.02;6.93;;;20.20;92.60;;;;;;5073121;28;20048;-80
2023/08/15 02:43:02;;;;;;;18.88;6.85;;;20.20;92.80;;;;;;5063274;28;20041;-80
2023/08/15 02:45:30;;;;;;;10.45;6.68;;;20.20;93.10;;;;;;5057458;28;20044;-80
2023/08/15 02:47:57;;;;;;;10.88;6.50;;;20.10;93.00;;;;;;5070460;28;20041;-80
2023/08/15 02:50:24;;;;;;;10.13;7.07;;;20.10;93.70;;;;;;5062877;28;20779;-80
2023/08/15 02:52:51;;;;;;;10.63;6.93;;;20.10;94.00;;;;;;5069882;28;20079;-80
2023/08/15 02:55:18;;;;;;;10.85;6.60;;;20.10;94.20;;;;;;5075176;28;20166;-76
2023/08/15 02:57:45;;;;;;;11.38;7.50;;;20.10;94.00;;;;;;5066766;28;20646;-76
2023/08/15 03:00:12;;;;;;;11.70;7.22;;;20.00;94.10;;;;;;5061544;28;20555;-76
2023/08/15 03:02:40;;;;;;;8.27;6.43;;;20.00;94.40;;;;;;5062152;28;20048;-76
2023/08/15 03:05:07;;;;;;;10.45;6.60;;;20.00;94.40;;;;;;5062506;28;20072;-76
2023/08/15 03:07:34;;;;;;;19.20;7.20;;;20.00;94.70;;;;;;5058673;28;20044;-76
2023/08/15 03:10:01;;;;;;;13.13;6.90;;;20.00;94.70;;;;;;5058059;28;20040;-76
2023/08/15 03:12:29;;;;;;;13.77;7.07;;;20.00;94.60;;;;;;5062531;28;20076;-76
2023/08/15 03:14:57;;;;;;;13.40;7.15;;;20.00;94.80;;;;;;5058872;28;20048;-76
2023/08/15 03:17:24;;;;;;;10.43;6.15;;;19.90;94.80;;;;;;5063213;28;20056;-76
2023/08/15 03:19:54;;;;;;;13.05;7.15;;;19.90;94.90;;;;;;5064057;28;20412;-76
2023/08/15 03:22:21;;;;;;;10.88;6.95;;;19.80;95.10;;;;;;5051335;28;20534;-76
2023/08/15 03:24:47;;;;;;;10.43;6.45;;;19.80;95.30;;;;;;5069832;28;20311;-76
2023/08/15 03:27:14;;;;;;;15.07;6.40;;;19.80;95.20;;;;;;5057957;28;20106;-76
2023/08/15 03:29:41;;;;;;;13.75;7.60;;;19.70;95.30;;;;;;5060566;28;20564;-76
2023/08/15 03:32:08;;;;;;;11.43;7.05;;;19.70;96.20;;;;;;5062069;28;20056;-76
2023/08/15 03:34:35;;;;;;;12.95;7.30;;;19.70;96.00;;;;;;5063912;28;20055;-76
2023/08/15 03:37:02;;;;;;;14.75;7.13;;;19.70;96.10;;;;;;5069502;28;20126;-76
2023/08/15 03:39:29;;;;;;;12.52;7.63;;;19.60;96.40;;;;;;5059022;28;20106;-76
2023/08/15 03:41:56;;;;;;;17.42;6.80;;;19.60;96.40;;;;;;5069874;28;20126;-76
2023/08/15 03:44:22;;;;;;;10.85;7.45;;;19.60;96.70;;;;;;5065098;28;20052;-76
2023/08/15 03:46:50;;;;;;;13.85;7.22;;;19.50;97.00;;;;;;5064654;28;20108;-76
2023/08/15 03:49:17;;;;;;;11.75;7.55;;;19.50;97.10;;;;;;5061495;28;20051;-76
2023/08/15 03:51:43;;;;;;;13.00;7.32;;;19.60;97.10;;;;;;5058708;28;20045;-76
2023/08/15 03:54:13;;;;;;;12.45;7.60;;;19.60;97.30;;;;;;5063076;28;20157;-76
2023/08/15 03:56:41;;;;;;;11.70;7.25;;;19.60;97.30;;;;;;5059317;28;20056;-76
2023/08/15 03:59:07;;;;;;;10.90;7.13;;;19.60;97.20;;;;;;5063952;28;20127;-76
2023/08/15 04:01:34;;;;;;;12.93;7.22;;;19.60;97.10;;;;;;5056524;28;20097;-76
2023/08/15 04:04:02;;;;;;;22.27;7.50;;;19.50;97.30;;;;;;5061209;28;20047;-76
2023/08/15 04:06:30;;;;;;;11.48;7.38;;;19.50;97.20;;;;;;5065690;28;20047;-77
2023/08/15 04:08:56;;;;;;;12.52;7.07;;;19.50;97.20;;;;;;5065994;28;20072;-76
2023/08/15 04:11:23;;;;;;;11.57;7.55;;;19.50;97.30;;;;;;5056182;28;20149;-76
2023/08/15 04:13:50;;;;;;;13.77;7.53;;;19.50;97.20;;;;;;5059402;28;20444;-76
2023/08/15 04:16:17;;;;;;;13.50;7.75;;;19.40;97.20;;;;;;5061129;28;20076;-76
2023/08/15 04:18:44;;;;;;;11.07;6.95;;;19.40;97.20;;;;;;5062491;28;20057;-76
2023/08/15 04:21:11;;;;;;;11.15;6.93;;;19.40;97.30;;;;;;5062120;28;20044;-76
2023/08/15 04:23:38;;;;;;;10.73;6.97;;;19.40;97.50;;;;;;5056974;28;20055;-76
2023/08/15 04:26:06;;;;;;;11.02;7.07;;;19.40;97.40;;;;;;5056130;28;20051;-76
2023/08/15 04:28:34;;;;;;;13.27;7.40;;;19.40;97.30;;;;;;5062755;28;20048;-76
2023/08/15 04:31:01;;;;;;;10.10;6.90;;;19.40;97.60;;;;;;5062232;28;20056;-80
2023/08/15 04:33:28;;;;;;;8.90;6.20;;;19.40;97.60;;;;;;5073270;28;20082;-80
2023/08/15 04:35:55;;;;;;;12.02;6.78;;;19.40;97.70;;;;;;5064186;28;20052;-79
2023/08/15 04:38:22;;;;;;;11.48;6.40;;;19.40;97.70;;;;;;5074034;28;20044;-80
2023/08/15 04:40:49;;;;;;;13.88;6.28;;;19.40;97.60;;;;;;5064779;28;20294;-80
2023/08/15 04:43:15;;;;;;;10.18;6.40;;;19.40;97.70;;;;;;5058053;28;20040;-80
2023/08/15 04:45:45;;;;;;;11.95;6.53;;;19.50;97.70;;;;;;5070405;28;20048;-80
2023/08/15 04:48:13;;;;;;;12.98;6.25;;;19.50;97.50;;;;;;5062671;28;20740;-81
2023/08/15 04:50:40;;;;;;;8.40;6.90;;;19.50;97.60;;;;;;5064398;28;20080;-80
2023/08/15 04:53:07;;;;;;;10.88;6.30;;;19.60;97.60;;;;;;5047039;28;20116;-81
2023/08/15 04:55:34;;;;;;;10.07;5.80;;;19.60;97.40;;;;;;5045495;28;20814;-80
2023/08/15 04:58:02;;;;;;;9.43;5.53;;;19.60;97.30;;;;;;5050036;28;20914;-81
2023/08/15 05:00:29;;;;;;;10.18;6.30;;;19.70;97.00;;;;;;5049778;28;20066;-79
2023/08/15 05:02:59;;;;;;;15.55;6.35;;;19.70;97.00;;;;;;5050807;28;20238;-78
2023/08/15 05:05:26;;;;;;;10.55;4.95;;;19.80;96.70;;;;;;5048352;28;20052;-79
2023/08/15 05:07:53;;;;;;;11.48;5.32;;;19.80;96.50;;;;;;5045481;28;20066;-76
2023/08/15 05:10:20;;;;;;;11.15;5.05;;;19.90;96.30;;;;;;5044552;28;20088;-77
2023/08/15 05:12:47;;;;;;;9.73;4.85;;;19.90;96.00;;;;;;5046245;28;20095;-77
2023/08/15 05:15:14;;;;;;;11.10;5.80;;;20.00;95.70;;;;;;5046780;28;20084;-77
2023/08/15 05:17:41;;;;;;;7.78;4.82;;;20.00;95.50;;;;;;5047507;28;20053;-77
2023/08/15 05:20:09;;;;;;;10.18;5.10;;;20.10;95.30;;;;;;5044965;28;20052;-79
2023/08/15 05:22:35;;;;;;;7.43;4.68;;;20.10;95.10;;;;;;5046560;28;20077;-78
2023/08/15 05:25:03;;;;;;;8.55;5.13;;;20.20;94.80;;;;;;5077322;28;20155;-77
2023/08/15 05:27:29;;;;;;;6.32;4.63;;;20.20;94.40;;;;;;5046553;28;20136;-78
2023/08/15 05:29:56;;;;;;;8.75;4.82;;;20.30;94.30;;;;;;5080096;28;20130;-77
2023/08/15 05:32:24;;;;;;;7.82;4.40;;;20.30;94.20;;;;;;5045211;28;20163;-77
2023/08/15 05:34:52;;;;;;;7.97;4.53;;;20.40;93.90;;;;;;5046435;28;20053;-78
2023/08/15 05:37:18;;;;;;;10.80;4.65;;;20.40;93.80;;;;;;5050104;28;20045;-81
2023/08/15 05:39:46;;;;;;;4.95;4.03;;;20.50;93.40;;;;;;5054619;28;20060;-80
2023/08/15 05:42:17;;;;;;;5.03;3.90;;;20.50;93.30;;;;;;5059084;28;20048;-78
2023/08/15 05:44:45;;;;;;;7.47;4.50;;;20.60;93.30;;;;;;5053276;28;20048;-79
2023/08/15 05:47:12;;;;;;;6.93;3.65;;;20.70;93.10;;;;;;5055709;28;20080;-79
2023/08/15 05:49:41;;;;;;;5.55;3.85;;;20.80;92.60;;;;;;5052143;28;20144;-79
2023/08/15 05:52:08;;;;;;;7.45;3.72;;;20.80;92.50;;;;;;5051937;28;20040;-79
2023/08/15 05:54:35;;;;;;;7.15;3.72;;;20.90;92.10;;;;;;5051173;28;20055;-79
2023/08/15 05:57:02;;;;;;;3.95;3.25;;;21.00;91.60;;;;;;5057465;28;20048;-79
2023/08/15 05:59:29;;;;;;;6.63;3.85;;;21.10;91.60;;;;;;5061952;28;20431;-79
2023/08/15 06:01:56;;;;;;;4.30;3.10;;;21.10;91.40;;;;;;5057063;28;20183;-79
2023/08/15 06:04:23;;;;;;;6.55;3.03;;;21.20;91.10;;;;;;5053194;28;20834;-79
2023/08/15 06:06:50;;;;;;;4.00;3.20;;;21.30;90.70;;;;;;5055143;28;20052;-79
2023/08/15 06:09:17;;;;;;;4.57;3.00;;;21.40;90.70;;;;;;5067925;28;20048;-79
2023/08/15 06:11:44;;;;;;;8.52;3.72;;;21.60;90.20;;;;;;5073973;28;21279;-79
2023/08/15 06:14:11;;;;;;;5.78;3.53;;;21.70;90.00;;;;;;5053492;28;20068;-79
2023/08/15 06:16:38;;;;;;;5.40;3.80;;;21.90;89.70;;;;;;5049827;28;20118;-78
2023/08/15 06:19:05;;;;;;;5.15;3.10;;;22.10;89.30;;;;;;5054741;28;20060;-78
2023/08/15 06:21:32;;;;;;;4.22;3.15;;;22.40;88.30;;;;;;5066248;28;20072;-78
2023/08/15 06:23:59;;;;;;;4.57;2.80;;;22.80;86.90;;;;;;5080709;28;20136;-78
2023/08/15 06:26:25;;;;;;;8.32;3.30;;;23.20;85.30;;;;;;5067411;28;20465;-79
2023/08/15 06:28:52;;;;;;;10.68;2.67;;;23.70;83.80;;;;;;5072660;28;20649;-79
2023/08/15 06:31:19;;;;;;;3.40;2.47;;;24.20;81.40;;;;;;5077684;28;20159;-79
2023/08/15 06:33:46;;;;;;;5.32;2.30;;;24.70;79.80;;;;;;5073410;28;20072;-79
2023/08/15 06:36:13;;;;;;;7.78;3.22;;;25.20;78.70;;;;;;5068020;28;20807;-79
2023/08/15 06:38:40;;;;;;;4.72;2.92;;;25.90;76.90;;;;;;5068356;28;20053;-79
2023/08/15 06:41:07;;;;;;;6.60;2.90;;;26.40;74.60;;;;;;5063429;28;20036;-79
2023/08/15 06:43:33;;;;;;;2.90;2.40;;;26.80;73.00;;;;;;5074952;28;20044;-79
2023/08/15 06:46:00;;;;;;;4.05;2.67;;;27.00;72.30;;;;;;5066509;28;20080;-79
2023/08/15 06:48:27;;;;;;;12.80;9.63;;;27.30;70.80;;;;;;5067771;28;20048;-78
2023/08/15 06:50:54;;;;;;;8.60;3.00;;;27.40;70.40;;;;;;5074661;28;20473;-79
2023/08/15 06:53:21;;;;;;;7.15;2.90;;;27.50;70.90;;;;;;5069335;28;20158;-78
2023/08/15 06:55:49;;;;;;;5.95;2.70;;;27.80;70.90;;;;;;5068118;28;20048;-79
2023/08/15 06:58:17;;;;;;;8.25;2.50;;;28.00;70.20;;;;;;5069137;28;20051;-79
2023/08/15 07:00:46;;;;;;;7.38;3.00;;;28.10;70.40;;;;;;5068218;28;20465;-76
2023/08/15 07:03:15;;;;;;;9.07;3.17;;;28.00;70.40;;;;;;5072667;28;20040;-76
2023/08/15 07:05:43;;;;;;;4.93;2.58;;;27.90;70.60;;;;;;5077714;28;20056;-77
2023/08/15 07:08:13;;;;;;;10.35;3.20;;;28.20;70.10;;;;;;5068684;28;20076;-77
2023/08/15 07:10:43;;;;;;;5.30;2.90;;;28.40;69.80;;;;;;5070285;28;20101;-77
2023/08/15 07:13:10;;;;;;;9.70;2.83;;;28.20;70.10;;;;;;5070547;28;20080;-77
2023/08/15 07:15:37;;;;;;;7.00;2.50;;;28.30;69.50;;;;;;5072769;28;20071;-77
2023/08/15 07:18:04;;;;;;;3.35;2.30;;;28.60;68.90;;;;;;5072096;28;20670;-79
2023/08/15 07:20:31;;;;;;;4.28;2.40;;;28.90;67.50;;;;;;5068256;28;20454;-77
2023/08/15 07:23:00;;;;;;;5.90;2.47;;;29.20;66.60;;;;;;5063934;28;20048;-77
2023/08/15 07:25:27;;;;;;;7.72;3.10;;;29.60;66.90;;;;;;5076367;28;20071;-78
2023/08/15 07:27:54;;;;;;;5.30;2.33;;;29.90;64.20;;;;;;5069653;28;20097;-77
2023/08/15 07:30:20;;;;;;;2.83;2.22;;;30.20;64.30;;;;;;5073556;28;20044;-76
2023/08/15 07:32:47;;;;;;;5.28;2.53;;;30.60;63.40;;;;;;5075786;28;20739;-76
2023/08/15 07:35:14;;;;;;;3.20;2.53;;;31.00;62.60;;;;;;5067860;28;20833;-76
2023/08/15 07:37:41;;;;;;;11.10;2.83;;;31.30;61.80;;;;;;5071104;28;20726;-77
2023/08/15 07:40:09;;;;;;;9.52;2.63;;;31.50;62.30;;;;;;5070961;28;20048;-76
2023/08/15 07:42:37;;;;;;;6.32;2.92;;;31.80;61.30;;;;;;5073233;28;20447;-76
2023/08/15 07:45:04;;;;;;;6.38;3.03;;;32.10;59.30;;;;;;5066656;28;20123;-76
2023/08/15 07:47:34;;;;;;;4.70;2.25;;;32.30;59.70;;;;;;5064591;28;20090;-76
2023/08/15 07:50:18;;;;;;;6.10;2.70;;;32.50;59.00;;;;;;5073294;28;20044;-75
2023/08/15 07:52:45;;;;;;;5.20;2.75;;;32.80;58.70;;;;;;5066355;28;20132;-75
2023/08/15 07:55:13;;;;;;;6.00;2.70;;;32.90;59.60;;;;;;5065163;28;20044;-75
2023/08/15 07:57:39;;;;;;;3.85;2.65;;;33.00;58.90;;;;;;5068343;28;20076;-75
2023/08/15 08:00:08;;;;;;;6.50;3.00;;;32.80;59.60;;;;;;5068688;28;20040;-75
2023/08/15 08:02:35;;;;;;;6.35;2.55;;;33.00;58.30;;;;;;5067524;28;20058;-76
2023/08/15 08:05:04;;;;;;;4.05;2.58;;;32.90;59.00;;;;;;5070976;28;20477;-75
2023/08/15 08:07:31;;;;;;;4.22;2.53;;;33.10;60.30;;;;;;5068160;28;20044;-76
2023/08/15 08:09:59;;;;;;;9.35;2.53;;;33.20;58.60;;;;;;5066824;28;20132;-75
2023/08/15 08:12:27;;;;;;;3.28;2.30;;;33.10;59.50;;;;;;5069320;28;20537;-75
2023/08/15 08:14:54;;;;;;;4.70;3.03;;;33.20;61.10;;;;;;5067563;28;20133;-76
2023/08/15 08:17:24;;;;;;;6.85;2.67;;;33.30;58.00;;;;;;5074377;28;20062;-75
2023/08/15 08:19:51;;;;;;;5.18;2.35;;;33.30;58.00;;;;;;5069719;28;20052;-75
2023/08/15 08:22:18;;;;;;;5.97;2.55;;;33.30;58.50;;;;;;5068279;28;20060;-75
2023/08/15 08:24:48;;;;;;;5.47;2.40;;;32.90;59.00;;;;;;5064093;28;20059;-75
2023/08/15 08:27:15;;;;;;;6.57;2.55;;;33.00;58.60;;;;;;5063353;28;20908;-75
2023/08/15 08:29:41;;;;;;;9.07;2.67;;;32.90;58.80;;;;;;5057131;28;20513;-75
2023/08/15 08:32:08;;;;;;;4.78;2.47;;;33.00;59.70;;;;;;5079978;28;20147;-75
2023/08/15 08:34:35;;;;;;;4.53;2.40;;;33.30;58.40;;;;;;5064593;28;20136;-75
2023/08/15 08:37:02;;;;;;;5.32;2.45;;;33.30;58.30;;;;;;5073946;28;20119;-75
2023/08/15 08:39:29;;;;;;;6.88;2.58;;;33.20;57.50;;;;;;5064788;28;20055;-75
2023/08/15 08:41:59;;;;;;;4.00;2.70;;;33.30;59.20;;;;;;5074833;28;20496;-75
2023/08/15 08:44:27;;;;;;;5.10;2.80;;;33.30;57.90;;;;;;5051349;28;20095;-75
2023/08/15 08:46:54;;;;;;;6.43;2.13;;;33.40;57.30;;;;;;5062182;28;20071;-76
2023/08/15 08:49:23;;;;;;;7.57;2.80;;;33.10;57.70;;;;;;5067723;28;20052;-75
2023/08/15 08:51:51;;;;;;;4.10;2.70;;;33.10;57.00;;;;;;5068991;28;20055;-76
2023/08/15 08:54:18;;;;;;;6.63;2.72;;;32.90;57.50;;;;;;5068120;28;20388;-75
2023/08/15 08:56:55;;;;;;;5.13;2.55;;;32.70;58.20;;;;;;5072484;28;20052;-75
2023/08/15 08:59:24;;;;;;;7.32;2.85;;;32.60;58.20;;;;;;5068830;28;20631;-76
2023/08/15 09:01:52;;;;;;;6.50;2.83;;;32.20;58.90;;;;;;5070905;28;20056;-75
2023/08/15 09:04:20;;;;;;;8.70;3.30;;;31.70;58.80;;;;;;5075490;28;20043;-75
2023/08/15 09:06:47;;;;;;;47.63;4.28;;;31.30;60.30;;;;;;5069635;28;20102;-75
2023/08/15 09:09:14;;;;;;;5.95;3.28;;;30.90;59.40;;;;;;5071169;28;20047;-75
2023/08/15 09:11:45;;;;;;;6.70;2.53;;;30.60;62.50;;;;;;5074465;28;20118;-75
2023/08/15 09:14:11;;;;;;;4.30;2.97;;;30.70;61.50;;;;;;5070985;28;20538;-75
2023/08/15 09:16:47;;;;;;;7.22;3.30;;;30.60;61.60;;;;;;5073970;28;20800;-75
2023/08/15 09:19:15;;;;;;;11.00;3.47;;;30.40;61.80;;;;;;5063913;28;20050;-75
2023/08/15 09:21:45;;;;;;;6.20;2.42;;;30.20;62.10;;;;;;5067028;28;20079;-75
2023/08/15 09:24:12;;;;;;;12.32;2.90;;;30.00;63.00;;;;;;5074844;28;20052;-75
2023/08/15 09:26:40;;;;;;;6.00;2.90;;;29.90;62.40;;;;;;5071090;28;20052;-75
2023/08/15 09:29:06;;;;;;;6.20;3.17;;;29.60;63.20;;;;;;5065885;28;20727;-75
2023/08/15 09:31:34;;;;;;;4.78;3.08;;;29.70;64.70;;;;;;5068564;28;20096;-75
2023/08/15 09:34:09;;;;;;;8.57;3.08;;;30.00;64.80;;;;;;5067469;28;20067;-75
2023/08/15 09:36:36;;;;;;;6.60;3.10;;;30.20;63.40;;;;;;5073024;28;20105;-75
2023/08/15 09:39:08;;;;;;;9.88;2.90;;;30.10;62.00;;;;;;5060992;28;20121;-75
2023/08/15 09:41:40;;;;;;;8.10;3.33;;;30.00;63.00;;;;;;5066243;28;20056;-75
2023/08/15 09:44:07;;;;;;;5.68;3.00;;;30.10;62.00;;;;;;5064006;28;20080;-75
2023/08/15 09:46:34;;;;;;;8.30;3.35;;;30.10;62.80;;;;;;5070692;28;20047;-75
2023/08/15 09:49:01;;;;;;;9.68;3.05;;;30.20;62.80;;;;;;5064329;28;20044;-75
2023/08/15 09:51:29;;;;;;;5.95;3.15;;;30.00;62.50;;;;;;5063536;28;20125;-75
2023/08/15 09:53:57;;;;;;;7.28;3.05;;;29.90;62.50;;;;;;5064891;28;20125;-75
2023/08/15 09:56:24;;;;;;;7.45;3.17;;;29.90;62.70;;;;;;5069101;28;20052;-74
2023/08/15 09:58:51;;;;;;;10.68;3.28;;;29.60;62.90;;;;;;5069910;28;20090;-75
2023/08/15 10:01:23;;;;;;;3.33;2.92;;;29.30;63.30;;;;;;5061530;28;20133;-75
2023/08/15 10:03:51;;;;;;;9.23;2.88;;;28.80;63.50;;;;;;5072456;28;20537;-75
2023/08/15 10:06:19;;;;;;;8.55;3.47;;;28.40;64.00;;;;;;5070029;28;20171;-75
2023/08/15 10:08:46;;;;;;;20.30;5.05;;;28.10;64.80;;;;;;5063931;28;20063;-75
2023/08/15 10:11:14;;;;;;;12.43;3.60;;;27.80;66.80;;;;;;5065337;28;20047;-74
2023/08/15 10:13:42;;;;;;;10.10;3.88;;;27.40;72.30;;;;;;5067941;28;20520;-74
2023/08/15 10:16:12;;;;;;;14.68;4.55;;;26.90;74.70;;;;;;5078302;28;20790;-74
2023/08/15 10:18:56;;;;;;;9.10;4.13;;;26.60;77.80;;;;;;5062026;28;20094;-74
2023/08/15 10:21:26;;;;;;;9.07;4.63;;;26.50;81.30;;;;;;5076033;28;20164;-74
2023/08/15 10:23:54;;;;;;;13.07;4.63;;;26.60;83.30;;;;;;5073338;28;20044;-74
2023/08/15 10:26:22;;;;;;;8.05;3.63;;;26.60;81.40;;;;;;5068425;28;20068;-74
2023/08/15 10:28:48;;;;;;;8.43;4.47;;;26.60;83.70;;;;;;5072421;28;20044;-74
2023/08/15 10:31:34;;;;;;;9.82;4.57;;;27.00;85.50;;;;;;5077533;28;20048;-75
2023/08/15 10:34:09;;;;;;;9.95;4.20;;;27.40;84.00;;;;;;5060058;28;20053;-75
2023/08/15 10:36:39;;;;;;;13.27;4.45;;;27.70;79.70;;;;;;5065333;28;20048;-75
2023/08/15 10:39:07;;;;;;;8.70;3.80;;;27.70;81.30;;;;;;5066059;28;20052;-75
2023/08/15 10:41:36;;;;;;;8.00;3.63;;;27.60;78.50;;;;;;5069138;28;20067;-75
2023/08/15 10:44:08;;;;;;;9.88;4.35;;;27.40;76.90;;;;;;5069235;28;20630;-75
2023/08/15 10:46:36;;;;;;;6.03;4.25;;;27.50;78.40;;;;;;5070748;28;20052;-77
2023/08/15 10:49:10;;;;;;;5.57;3.70;;;27.80;78.70;;;;;;5071571;28;20101;-77
2023/08/15 10:51:39;;;;;;;5.77;3.83;;;28.30;79.30;;;;;;5072874;28;20074;-78
2023/08/15 10:54:11;;;;;;;6.38;3.75;;;29.10;76.40;;;;;;5069222;28;20285;-77
2023/08/15 10:56:40;;;;;;;6.35;3.95;;;30.40;73.60;;;;;;5061233;28;20365;-77
2023/08/15 10:59:15;;;;;;;6.13;3.40;;;31.70;71.50;;;;;;5073380;28;20043;-77
2023/08/15 11:01:44;;;;;;;9.18;4.15;;;32.60;67.40;;;;;;5066321;28;20072;-76
2023/08/15 11:04:16;;;;;;;7.20;3.20;;;33.00;66.70;;;;;;5074525;28;20055;-77
2023/08/15 11:06:48;;;;;;;10.60;3.45;;;33.80;60.80;;;;;;5063226;28;20041;-77
2023/08/15 11:09:16;;;;;;;8.25;3.08;;;34.20;63.40;;;;;;5068185;28;20045;-77
2023/08/15 11:11:48;;;;;;;6.60;3.53;;;34.60;60.10;;;;;;5070874;28;20053;-77
2023/08/15 11:14:17;;;;;;;6.68;3.97;;;35.10;60.00;;;;;;5071886;28;20052;-77
2023/08/15 11:16:48;;;;;;;5.10;3.33;;;35.90;57.50;;;;;;5066190;28;20048;-77
2023/08/15 11:19:28;;;;;;;6.00;3.60;;;35.90;57.50;;;;;;5070314;28;20071;-77
2023/08/15 11:21:57;;;;;;;7.53;3.50;;;35.50;56.50;;;;;;5068431;28;20574;-78
2023/08/15 11:24:30;;;;;;;5.68;3.33;;;35.40;57.60;;;;;;5074454;28;20048;-77
2023/08/15 11:27:01;;;;;;;9.70;3.15;;;35.80;57.70;;;;;;5071238;28;20120;-77
2023/08/15 11:29:28;;;;;;;10.35;3.50;;;36.50;55.30;;;;;;5067274;28;20048;-78
2023/08/15 11:31:58;;;;;;;6.50;3.25;;;36.90;53.60;;;;;;5081106;28;20095;-78
2023/08/15 11:34:25;;;;;;;9.48;3.42;;;37.60;50.70;;;;;;5068408;28;20059;-78
2023/08/15 11:36:52;;;;;;;6.80;3.22;;;37.90;49.90;;;;;;5074104;28;20109;-78
2023/08/15 11:39:19;;;;;;;7.55;3.10;;;38.30;51.20;;;;;;5069091;28;20052;-78
2023/08/15 11:41:47;;;;;;;6.55;3.60;;;38.40;50.80;;;;;;5065887;28;20419;-78
2023/08/15 11:44:21;;;;;;;9.40;3.67;;;38.30;47.20;;;;;;5067977;28;20103;-78
2023/08/15 11:46:48;;;;;;;6.40;3.38;;;37.70;52.20;;;;;;5072054;28;20159;-77
2023/08/15 11:49:22;;;;;;;5.03;3.30;;;37.20;48.70;;;;;;5067727;28;20098;-77
2023/08/15 11:51:49;;;;;;;7.65;3.42;;;36.70;51.50;;;;;;5067419;28;20125;-77
2023/08/15 11:54:16;;;;;;;6.70;3.53;;;37.10;51.70;;;;;;5066181;28;20059;-78
2023/08/15 11:56:49;;;;;;;10.98;3.55;;;37.70;51.90;;;;;;5068190;28;20497;-78
2023/08/15 11:59:21;;;;;;;8.85;3.90;;;37.70;52.80;;;;;;5071433;28;20040;-78
2023/08/15 12:01:49;;;;;;;8.05;3.60;;;36.80;49.50;;;;;;5072584;28;20135;-78
2023/08/15 12:04:16;;;;;;;5.55;3.00;;;35.80;50.20;;;;;;5065711;28;20542;-77
2023/08/15 12:06:46;;;;;;;4.72;3.63;;;36.10;52.50;;;;;;5065191;28;20465;-78
2023/08/15 12:09:13;;;;;;;6.95;3.05;;;36.60;51.30;;;;;;5069945;28;20058;-78
2023/08/15 12:11:40;;;;;;;9.20;3.20;;;37.30;48.90;;;;;;5071310;28;20108;-78
2023/08/15 12:14:18;;;;;;;8.55;3.30;;;37.30;51.00;;;;;;5063233;28;20048;-78
2023/08/15 12:16:45;;;;;;;6.03;2.95;;;37.10;47.60;;;;;;5057277;28;20554;-78
2023/08/15 12:19:13;;;;;;;6.53;2.78;;;37.30;45.00;;;;;;5066270;28;20257;-78
2023/08/15 12:21:42;;;;;;;7.80;3.10;;;36.60;48.90;;;;;;5090173;28;20447;-78
2023/08/15 12:24:09;;;;;;;4.25;2.88;;;35.40;49.00;;;;;;5067807;28;20055;-78
2023/08/15 12:26:35;;;;;;;9.15;3.58;;;35.50;50.50;;;;;;5062400;28;20041;-78
2023/08/15 12:29:02;;;;;;;13.00;3.53;;;36.80;51.00;;;;;;5060791;28;20135;-77
2023/08/15 12:31:29;;;;;;;4.68;2.80;;;37.10;46.40;;;;;;5067132;28;20872;-78
2023/08/15 12:33:56;;;;;;;5.18;3.30;;;35.90;47.30;;;;;;5056967;28;20231;-78
2023/08/15 12:36:23;;;;;;;4.38;2.80;;;34.80;48.80;;;;;;5059209;28;20084;-77
2023/08/15 12:38:50;;;;;;;8.88;3.13;;;33.90;50.70;;;;;;5053350;28;20076;-77
2023/08/15 12:41:17;;;;;;;6.65;3.40;;;33.50;50.70;;;;;;5069872;28;20063;-77
2023/08/15 12:43:44;;;;;;;9.30;3.63;;;33.30;50.50;;;;;;5065147;28;20104;-78
2023/08/15 12:46:11;;;;;;;8.43;3.05;;;33.20;53.10;;;;;;5070034;28;20412;-77
2023/08/15 12:48:38;;;;;;;5.38;3.40;;;33.90;54.30;;;;;;5069125;28;20405;-77